Time;durP1;ratioP1;P1;durP2;ratioP2;P2;SDS_P1;SDS_P2;PMS_P1;PMS_P2;Temp;Humidity;BMP_temperature;BMP_pressure;BME280_temperature;BME280_humidity;BME280_pressure;Samples;Min_cycle;Max_cycle;Signal;HPM_P1;HPM_P2
2021/08/06 00:00:06;;;;;;;3.75;2.40;;;18.70;99.90;;;;;;4366546;32;20497;-70
2021/08/06 00:02:32;;;;;;;4.68;2.20;;;18.60;99.90;;;;;;4353919;32;20089;-71
2021/08/06 00:04:59;;;;;;;4.53;2.37;;;18.60;99.90;;;;;;4366563;32;20535;-70
2021/08/06 00:07:25;;;;;;;3.75;2.35;;;18.60;99.90;;;;;;4354437;32;20156;-70
2021/08/06 00:09:51;;;;;;;3.40;2.12;;;18.50;99.90;;;;;;4378670;32;20085;-70
2021/08/06 00:12:17;;;;;;;3.55;2.47;;;18.60;99.90;;;;;;4353861;32;20519;-70
2021/08/06 00:14:43;;;;;;;5.15;2.30;;;18.50;99.90;;;;;;4366232;32;20149;-71
2021/08/06 00:17:09;;;;;;;3.33;2.30;;;18.50;99.90;;;;;;4378629;32;20078;-69
2021/08/06 00:19:36;;;;;;;4.25;2.50;;;18.50;99.90;;;;;;4354101;32;20472;-70
2021/08/06 00:22:02;;;;;;;4.53;2.60;;;18.50;99.90;;;;;;4378751;32;20085;-70
2021/08/06 00:24:28;;;;;;;3.90;2.30;;;18.40;99.90;;;;;;4340532;32;20530;-70
2021/08/06 00:26:54;;;;;;;4.90;2.58;;;18.40;99.90;;;;;;4366383;32;20112;-71
2021/08/06 00:29:22;;;;;;;5.37;2.40;;;18.30;99.90;;;;;;4354276;32;20078;-70
2021/08/06 00:31:48;;;;;;;5.05;2.75;;;18.30;99.90;;;;;;4377895;32;20536;-70
2021/08/06 00:34:14;;;;;;;7.07;2.45;;;18.20;99.90;;;;;;4365956;32;20124;-71
2021/08/06 00:36:40;;;;;;;3.22;2.30;;;18.20;99.90;;;;;;4366459;32;20292;-71
2021/08/06 00:39:07;;;;;;;8.75;2.55;;;18.20;99.90;;;;;;4378304;32;20068;-69
2021/08/06 00:41:33;;;;;;;3.22;2.37;;;18.10;99.90;;;;;;4353266;32;20175;-70
2021/08/06 00:43:59;;;;;;;3.28;2.67;;;18.10;99.90;;;;;;4392468;32;20451;-70
2021/08/06 00:46:26;;;;;;;5.15;2.37;;;18.10;99.90;;;;;;4340827;32;20089;-70
2021/08/06 00:48:52;;;;;;;4.28;2.50;;;18.10;99.90;;;;;;4366220;32;20089;-71
2021/08/06 00:51:19;;;;;;;4.82;2.42;;;18.00;99.90;;;;;;4365709;32;20201;-70
2021/08/06 00:53:45;;;;;;;3.83;2.20;;;17.90;99.90;;;;;;4365761;32;20523;-71
2021/08/06 00:56:12;;;;;;;5.03;2.83;;;18.00;99.90;;;;;;4366087;32;20086;-70
2021/08/06 00:58:38;;;;;;;3.87;2.30;;;17.90;99.90;;;;;;4365496;32;20080;-70
2021/08/06 01:01:05;;;;;;;3.58;2.30;;;17.90;99.90;;;;;;4375026;32;20113;-71
2021/08/06 01:04:24;;;;;;;3.78;2.40;;;17.80;99.90;;;;;;4363584;32;20069;-70
2021/08/06 01:06:56;;;;;;;5.90;2.85;;;17.80;99.90;;;;;;4338628;32;20546;-71
2021/08/06 01:09:47;;;;;;;6.35;2.45;;;17.70;99.90;;;;;;4375383;32;20088;-71
2021/08/06 01:12:20;;;;;;;4.35;2.53;;;17.80;99.90;;;;;;4364122;32;20105;-70
2021/08/06 01:14:46;;;;;;;4.00;2.95;;;17.80;99.90;;;;;;4350846;32;20085;-70
2021/08/06 01:17:12;;;;;;;4.45;2.90;;;17.70;99.90;;;;;;4363233;32;20082;-70
2021/08/06 01:20:03;;;;;;;5.82;2.95;;;17.70;99.90;;;;;;4338432;32;20163;-71
2021/08/06 01:22:41;;;;;;;5.55;2.90;;;17.70;99.90;;;;;;4364174;32;20058;-70
2021/08/06 01:25:15;;;;;;;9.13;2.90;;;17.70;99.90;;;;;;4351061;32;20138;-70
2021/08/06 01:27:45;;;;;;;3.62;2.60;;;17.70;99.90;;;;;;4350725;32;20088;-71
2021/08/06 01:30:13;;;;;;;3.33;2.60;;;17.60;99.90;;;;;;4362946;32;20078;-71
2021/08/06 01:32:39;;;;;;;4.37;2.50;;;17.70;99.90;;;;;;4363214;32;20074;-71
2021/08/06 01:35:07;;;;;;;4.50;2.72;;;17.70;99.90;;;;;;4362642;32;20096;-71
2021/08/06 01:37:34;;;;;;;3.72;2.80;;;17.70;99.90;;;;;;4375061;32;20104;-71
2021/08/06 01:40:06;;;;;;;5.87;2.83;;;17.70;99.90;;;;;;4374957;32;20062;-70
2021/08/06 01:43:04;;;;;;;5.65;2.70;;;17.80;99.90;;;;;;4362473;32;20124;-71
2021/08/06 01:45:36;;;;;;;4.50;2.87;;;17.70;99.90;;;;;;4351174;32;20085;-69
2021/08/06 01:48:03;;;;;;;6.22;2.80;;;17.60;99.90;;;;;;4363115;32;20093;-70
2021/08/06 01:50:34;;;;;;;5.03;2.80;;;17.50;99.90;;;;;;4362451;32;20097;-70
2021/08/06 01:53:02;;;;;;;3.30;2.62;;;17.50;99.90;;;;;;4350429;32;20071;-71
2021/08/06 01:55:40;;;;;;;3.28;2.67;;;17.50;99.90;;;;;;4350350;32;20176;-71
2021/08/06 01:58:06;;;;;;;4.57;2.55;;;17.50;99.90;;;;;;4351383;32;20515;-70
2021/08/06 02:00:33;;;;;;;3.42;2.53;;;17.40;99.90;;;;;;4362875;32;20081;-71
2021/08/06 02:03:00;;;;;;;5.80;2.87;;;17.50;99.90;;;;;;4353059;32;20077;-71
2021/08/06 02:05:26;;;;;;;4.68;2.80;;;17.50;99.90;;;;;;4339878;32;20093;-71
2021/08/06 02:07:53;;;;;;;4.78;2.83;;;17.50;99.90;;;;;;4340187;32;20512;-70
2021/08/06 02:10:19;;;;;;;4.07;2.70;;;17.60;99.90;;;;;;4365305;32;20081;-69
2021/08/06 02:12:45;;;;;;;3.92;2.60;;;17.70;99.90;;;;;;4364720;32;20145;-71
2021/08/06 02:15:13;;;;;;;3.65;2.80;;;17.70;99.90;;;;;;4377469;32;20150;-70
2021/08/06 02:17:39;;;;;;;3.58;2.80;;;17.80;99.90;;;;;;4353145;32;20058;-69
2021/08/06 02:20:08;;;;;;;4.75;2.50;;;17.70;99.90;;;;;;4340028;32;20094;-70
2021/08/06 02:22:35;;;;;;;5.95;2.80;;;17.70;99.90;;;;;;4352394;32;20449;-70
2021/08/06 02:25:04;;;;;;;3.78;2.60;;;17.60;99.90;;;;;;4352670;32;20074;-70
2021/08/06 02:27:30;;;;;;;4.15;2.42;;;17.80;99.90;;;;;;4377356;32;20074;-70
2021/08/06 02:29:58;;;;;;;3.90;2.67;;;17.90;99.90;;;;;;4328334;32;20085;-71
2021/08/06 02:32:24;;;;;;;4.15;2.70;;;17.90;99.90;;;;;;4352890;32;20093;-70
2021/08/06 02:34:51;;;;;;;4.53;2.92;;;17.90;99.90;;;;;;4352437;32;20167;-70
2021/08/06 02:37:17;;;;;;;4.87;2.72;;;17.90;99.90;;;;;;4352698;32;20080;-71
2021/08/06 02:39:43;;;;;;;4.45;2.75;;;17.90;99.90;;;;;;4365199;32;20518;-70
2021/08/06 02:42:10;;;;;;;3.90;2.65;;;17.90;99.90;;;;;;4352469;32;20078;-69
2021/08/06 02:44:39;;;;;;;4.28;2.90;;;17.90;99.90;;;;;;4376966;32;20088;-70
2021/08/06 02:47:06;;;;;;;7.68;3.10;;;17.90;99.90;;;;;;4339977;32;20122;-71
2021/08/06 02:49:33;;;;;;;5.78;2.97;;;17.90;99.90;;;;;;4354985;32;20105;-70
2021/08/06 02:52:05;;;;;;;5.10;2.85;;;18.10;99.90;;;;;;4354798;32;20077;-70
2021/08/06 02:54:35;;;;;;;4.12;2.83;;;18.10;99.90;;;;;;4367405;32;20080;-70
2021/08/06 02:57:02;;;;;;;2.42;2.22;;;18.10;99.90;;;;;;4367884;32;20074;-70
2021/08/06 02:59:28;;;;;;;4.87;2.75;;;18.10;99.90;;;;;;4354644;32;20082;-71
2021/08/06 03:01:55;;;;;;;6.93;3.10;;;18.20;99.90;;;;;;4342251;32;20157;-71
2021/08/06 03:04:21;;;;;;;4.45;2.75;;;18.30;99.90;;;;;;4367560;32;20239;-70
2021/08/06 03:06:47;;;;;;;4.72;3.10;;;18.20;99.90;;;;;;4380147;32;20128;-70
2021/08/06 03:09:13;;;;;;;4.55;2.83;;;18.20;99.90;;;;;;4379726;32;20078;-71
2021/08/06 03:11:39;;;;;;;5.10;3.12;;;18.40;99.90;;;;;;4379642;32;20085;-69
2021/08/06 03:14:05;;;;;;;5.12;3.20;;;18.40;99.90;;;;;;4379811;32;20089;-70
2021/08/06 03:16:32;;;;;;;4.40;2.92;;;18.40;99.90;;;;;;4379539;32;20463;-71
2021/08/06 03:18:58;;;;;;;6.00;3.67;;;18.50;99.90;;;;;;4367497;32;20580;-70
2021/08/06 03:21:24;;;;;;;7.60;3.50;;;18.50;99.90;;;;;;4354827;32;20145;-70
2021/08/06 03:23:51;;;;;;;4.90;2.92;;;18.60;99.90;;;;;;4379320;32;20440;-70
2021/08/06 03:26:17;;;;;;;8.27;3.45;;;18.70;99.90;;;;;;4379611;32;20441;-71
2021/08/06 03:28:43;;;;;;;4.18;2.62;;;18.70;99.90;;;;;;4379410;32;20105;-70
2021/08/06 03:31:09;;;;;;;5.00;2.80;;;18.80;99.90;;;;;;4379701;32;20113;-70
2021/08/06 03:33:35;;;;;;;4.00;2.78;;;18.70;99.90;;;;;;4379967;32;20080;-70
2021/08/06 03:36:01;;;;;;;5.15;3.10;;;18.80;99.90;;;;;;4354617;32;20542;-69
2021/08/06 03:38:28;;;;;;;3.60;2.92;;;18.80;99.90;;;;;;4366716;32;20072;-70
2021/08/06 03:40:54;;;;;;;5.32;2.72;;;19.00;99.90;;;;;;4379617;32;20074;-70
2021/08/06 03:43:20;;;;;;;4.18;2.33;;;18.90;99.90;;;;;;4378949;32;20429;-72
2021/08/06 03:45:46;;;;;;;5.07;2.78;;;19.00;99.90;;;;;;4379428;32;20140;-70
2021/08/06 03:48:12;;;;;;;4.93;2.72;;;19.10;99.90;;;;;;4367503;32;20085;-70
2021/08/06 03:50:39;;;;;;;4.25;2.90;;;19.10;99.90;;;;;;4379093;32;20082;-70
2021/08/06 03:53:05;;;;;;;5.90;2.40;;;19.10;99.90;;;;;;4366543;32;20146;-70
2021/08/06 03:55:31;;;;;;;4.18;2.60;;;19.10;99.90;;;;;;4353972;32;20531;-70
2021/08/06 03:57:58;;;;;;;8.43;2.87;;;19.20;99.90;;;;;;4379122;32;20070;-71
2021/08/06 04:00:27;;;;;;;4.53;2.35;;;19.20;99.90;;;;;;4354366;32;20444;-69
2021/08/06 04:02:53;;;;;;;5.70;2.40;;;19.30;99.90;;;;;;4354828;32;20078;-70
2021/08/06 04:05:20;;;;;;;6.55;2.90;;;19.40;99.90;;;;;;4366953;32;20088;-70
2021/08/06 04:07:47;;;;;;;5.30;2.40;;;19.40;99.90;;;;;;4366687;32;20173;-69
2021/08/06 04:10:18;;;;;;;6.05;2.90;;;19.40;99.90;;;;;;4378941;32;20089;-70
2021/08/06 04:12:48;;;;;;;7.20;2.90;;;19.50;99.90;;;;;;4366115;32;20076;-70
2021/08/06 04:15:15;;;;;;;5.20;2.75;;;19.40;99.90;;;;;;4367345;32;20069;-70
2021/08/06 04:17:42;;;;;;;7.55;3.10;;;19.50;99.90;;;;;;4341816;32;20089;-70
2021/08/06 04:20:09;;;;;;;3.17;2.15;;;19.60;99.90;;;;;;4365790;32;20467;-70
2021/08/06 04:22:35;;;;;;;8.43;2.75;;;19.70;99.90;;;;;;4354067;32;20463;-70
2021/08/06 04:25:02;;;;;;;5.03;2.78;;;19.70;99.90;;;;;;4365822;32;20093;-70
2021/08/06 04:27:28;;;;;;;6.12;2.47;;;19.60;99.90;;;;;;4366797;32;20149;-71
2021/08/06 04:29:54;;;;;;;10.65;3.10;;;19.50;99.90;;;;;;4378506;32;20070;-70
2021/08/06 04:32:21;;;;;;;3.50;2.33;;;19.70;99.90;;;;;;4353428;32;20161;-70
2021/08/06 04:34:47;;;;;;;7.45;2.87;;;20.00;99.90;;;;;;4365770;32;20074;-70
2021/08/06 04:37:13;;;;;;;5.87;2.58;;;20.40;99.90;;;;;;4378463;32;20062;-70
2021/08/06 04:39:39;;;;;;;4.95;2.90;;;20.30;99.90;;;;;;4378145;32;20127;-70
2021/08/06 04:42:06;;;;;;;6.20;2.70;;;20.00;99.90;;;;;;4365896;32;20174;-70
2021/08/06 04:44:36;;;;;;;3.90;2.85;;;20.30;99.90;;;;;;4341706;32;20090;-70
2021/08/06 04:47:03;;;;;;;4.00;2.25;;;22.10;99.90;;;;;;4330974;32;20212;-70
2021/08/06 04:49:29;;;;;;;3.90;2.50;;;23.20;96.90;;;;;;4366009;32;20074;-69
2021/08/06 04:51:56;;;;;;;3.95;2.35;;;23.00;92.30;;;;;;4365716;32;20523;-69
2021/08/06 04:54:22;;;;;;;7.15;2.45;;;23.20;92.20;;;;;;4341072;32;20070;-70
2021/08/06 04:56:48;;;;;;;6.62;2.70;;;23.40;87.20;;;;;;4353327;32;20440;-70
2021/08/06 04:59:14;;;;;;;4.05;2.58;;;23.40;85.80;;;;;;4365648;32;20170;-70
2021/08/06 05:01:41;;;;;;;3.92;2.37;;;23.90;78.70;;;;;;4350685;32;20097;-70
2021/08/06 05:04:07;;;;;;;5.18;2.30;;;23.40;78.80;;;;;;4375629;32;20071;-70
2021/08/06 05:06:33;;;;;;;2.97;2.00;;;23.90;67.30;;;;;;4362920;32;20468;-70
2021/08/06 05:08:59;;;;;;;2.80;2.25;;;24.20;65.90;;;;;;4362969;32;20079;-70
2021/08/06 05:11:26;;;;;;;4.95;2.70;;;24.10;63.40;;;;;;4362891;32;20089;-70
2021/08/06 05:13:52;;;;;;;3.92;2.30;;;24.20;63.20;;;;;;4363500;32;20112;-70
2021/08/06 05:16:19;;;;;;;3.45;1.92;;;23.70;63.60;;;;;;4338333;32;20086;-69
2021/08/06 05:18:45;;;;;;;5.62;2.22;;;24.00;66.20;;;;;;4362892;32;20089;-70
2021/08/06 05:21:11;;;;;;;3.65;2.30;;;24.20;63.50;;;;;;4338129;32;20456;-70
2021/08/06 05:23:37;;;;;;;4.32;2.30;;;24.00;59.40;;;;;;4376248;32;20235;-70
2021/08/06 05:26:04;;;;;;;4.30;2.55;;;24.20;57.40;;;;;;4350263;32;20539;-70
2021/08/06 05:28:30;;;;;;;6.25;2.30;;;23.80;56.90;;;;;;4363299;32;20078;-71
2021/08/06 05:30:56;;;;;;;3.10;2.28;;;23.90;58.40;;;;;;4375262;32;20081;-70
2021/08/06 05:33:23;;;;;;;4.40;2.10;;;24.20;55.60;;;;;;4362277;32;20464;-70
2021/08/06 05:35:49;;;;;;;4.68;2.60;;;23.90;56.80;;;;;;4350341;32;20081;-71
2021/08/06 05:38:15;;;;;;;5.78;2.55;;;24.40;52.90;;;;;;4375524;32;20114;-71
2021/08/06 05:40:43;;;;;;;4.00;2.33;;;24.20;53.40;;;;;;4372582;32;20089;-71
2021/08/06 05:43:09;;;;;;;3.65;2.30;;;24.10;52.00;;;;;;4362847;32;20121;-73
2021/08/06 05:45:36;;;;;;;4.15;2.08;;;25.60;46.70;;;;;;4357579;32;20121;-73
2021/08/06 05:48:02;;;;;;;2.83;2.20;;;24.50;44.10;;;;;;4343753;32;20458;-74
2021/08/06 05:50:28;;;;;;;3.47;2.25;;;24.30;40.70;;;;;;4339455;32;20085;-71
2021/08/06 05:52:55;;;;;;;2.97;2.20;;;23.70;45.50;;;;;;4371094;32;20081;-71
2021/08/06 05:55:21;;;;;;;4.25;2.22;;;24.50;44.80;;;;;;4356049;32;20567;-72
2021/08/06 05:57:47;;;;;;;3.45;2.17;;;24.20;48.80;;;;;;4351736;32;20110;-69
2021/08/06 06:00:15;;;;;;;2.80;2.28;;;24.60;46.10;;;;;;4356804;32;20090;-73
2021/08/06 06:02:42;;;;;;;5.82;2.28;;;24.40;45.50;;;;;;4359161;32;20209;-74
2021/08/06 06:05:08;;;;;;;3.05;2.42;;;24.70;42.40;;;;;;4341368;32;20093;-72
2021/08/06 06:07:48;;;;;;;3.83;2.60;;;24.40;46.30;;;;;;4373871;32;20130;-75
2021/08/06 06:10:18;;;;;;;3.22;2.50;;;24.80;45.90;;;;;;4361453;32;20509;-73
2021/08/06 06:12:44;;;;;;;3.53;2.30;;;24.10;47.80;;;;;;4336501;32;20077;-75
2021/08/06 06:15:11;;;;;;;3.75;2.45;;;26.00;42.20;;;;;;4364133;32;20058;-72
2021/08/06 06:17:37;;;;;;;3.42;2.45;;;25.30;42.10;;;;;;4344555;32;20067;-72
2021/08/06 06:20:04;;;;;;;5.10;2.40;;;25.40;44.00;;;;;;4367954;32;20154;-72
2021/08/06 06:22:31;;;;;;;2.95;2.20;;;26.40;41.50;;;;;;4361274;32;20150;-74
2021/08/06 06:24:58;;;;;;;3.15;2.05;;;26.30;40.00;;;;;;4363610;32;20518;-72
2021/08/06 06:27:24;;;;;;;4.10;2.35;;;24.90;42.70;;;;;;4346125;32;20066;-73
2021/08/06 06:29:50;;;;;;;3.10;2.42;;;24.90;42.90;;;;;;4344100;32;20488;-73
2021/08/06 06:32:16;;;;;;;3.60;2.30;;;23.90;48.60;;;;;;4371131;32;20071;-72
2021/08/06 06:34:42;;;;;;;2.83;2.03;;;23.80;49.10;;;;;;4374213;32;20073;-73
2021/08/06 06:37:08;;;;;;;3.10;2.37;;;23.60;52.70;;;;;;4354085;32;20075;-71
2021/08/06 06:39:34;;;;;;;2.83;2.20;;;23.30;54.00;;;;;;4364736;32;20085;-72
2021/08/06 06:42:00;;;;;;;4.37;2.58;;;23.30;54.70;;;;;;4355250;32;20090;-72
2021/08/06 06:44:27;;;;;;;5.00;2.67;;;23.60;54.20;;;;;;4358331;32;20063;-74
2021/08/06 06:46:53;;;;;;;3.78;2.40;;;23.60;54.60;;;;;;4364403;32;20514;-80
2021/08/06 06:49:19;;;;;;;2.87;2.20;;;24.00;51.30;;;;;;4367364;32;20459;-78
2021/08/06 06:51:45;;;;;;;2.65;2.15;;;24.30;48.60;;;;;;4363423;32;20100;-80
2021/08/06 06:54:11;;;;;;;4.35;1.95;;;23.80;49.20;;;;;;4358881;32;20109;-80
2021/08/06 06:56:38;;;;;;;4.50;2.12;;;24.20;48.60;;;;;;4347462;32;20508;-79
2021/08/06 06:59:04;;;;;;;2.20;2.00;;;24.30;48.30;;;;;;4371676;32;20441;-70
2021/08/06 07:01:30;;;;;;;3.70;2.00;;;24.70;46.10;;;;;;4364506;32;20154;-77
2021/08/06 07:03:56;;;;;;;3.70;1.87;;;24.30;44.30;;;;;;4361269;32;20678;-77
2021/08/06 07:06:23;;;;;;;2.45;2.00;;;24.90;43.20;;;;;;4368165;32;20149;-83
2021/08/06 07:08:50;;;;;;;4.68;2.33;;;23.90;42.10;;;;;;4337693;32;20073;-80
2021/08/06 07:11:16;;;;;;;2.67;1.98;;;23.90;41.70;;;;;;4360709;32;20150;-75
2021/08/06 07:13:43;;;;;;;3.58;1.92;;;24.00;44.20;;;;;;4373802;32;20156;-81
2021/08/06 07:16:09;;;;;;;2.95;2.25;;;24.10;41.40;;;;;;4343366;32;20604;-81
2021/08/06 07:18:35;;;;;;;3.83;1.92;;;24.70;39.00;;;;;;4349702;32;20201;-80
2021/08/06 07:21:01;;;;;;;3.25;1.80;;;23.80;39.30;;;;;;4335774;32;20081;-78
2021/08/06 07:23:31;;;;;;;1.87;1.77;;;23.80;40.00;;;;;;4358917;32;20465;-79
2021/08/06 07:25:57;;;;;;;2.65;1.98;;;24.20;38.40;;;;;;4367797;32;20153;-78
2021/08/06 07:28:24;;;;;;;2.17;1.95;;;23.90;38.10;;;;;;4376087;32;20500;-80
2021/08/06 07:30:50;;;;;;;2.78;1.90;;;23.90;38.10;;;;;;4358121;32;20108;-76
2021/08/06 07:33:16;;;;;;;2.10;1.70;;;24.10;36.20;;;;;;4360940;32;20173;-75
2021/08/06 07:35:42;;;;;;;2.25;1.80;;;23.80;35.90;;;;;;4375167;32;20081;-76
2021/08/06 07:38:09;;;;;;;4.62;1.80;;;24.00;36.40;;;;;;4342625;32;20171;-75
2021/08/06 07:40:35;;;;;;;4.10;1.80;;;23.90;36.70;;;;;;4369325;32;20074;-77
2021/08/06 07:43:01;;;;;;;2.17;1.90;;;23.90;35.40;;;;;;4372753;32;20165;-78
2021/08/06 07:45:27;;;;;;;2.47;1.70;;;24.50;35.70;;;;;;4356578;32;20071;-76
2021/08/06 07:47:54;;;;;;;2.53;1.80;;;24.40;36.30;;;;;;4368986;32;20121;-72
2021/08/06 07:50:20;;;;;;;1.65;1.55;;;24.70;37.60;;;;;;4369005;32;20094;-72
2021/08/06 07:52:46;;;;;;;3.53;1.98;;;24.50;38.40;;;;;;4321125;32;20181;-77
2021/08/06 07:55:13;;;;;;;3.53;2.00;;;24.30;39.40;;;;;;4360549;32;20111;-75
2021/08/06 07:57:40;;;;;;;1.80;1.70;;;24.40;38.30;;;;;;4345698;32;20070;-71
2021/08/06 08:00:07;;;;;;;1.67;1.58;;;24.40;38.50;;;;;;4337717;32;20083;-73
2021/08/06 08:02:34;;;;;;;2.85;1.92;;;24.60;37.50;;;;;;4363839;32;20063;-73
2021/08/06 08:05:00;;;;;;;2.03;1.80;;;25.20;35.10;;;;;;4369254;32;20082;-76
2021/08/06 08:07:26;;;;;;;3.50;1.90;;;24.70;37.00;;;;;;4347248;32;20077;-78
2021/08/06 08:09:52;;;;;;;2.40;2.03;;;24.50;37.30;;;;;;4351373;32;20067;-77
2021/08/06 08:12:18;;;;;;;3.50;1.95;;;24.30;38.10;;;;;;4370044;32;20089;-76
2021/08/06 08:14:48;;;;;;;2.53;1.90;;;24.10;36.10;;;;;;4371672;32;20524;-75
2021/08/06 08:17:15;;;;;;;2.42;1.60;;;24.20;37.60;;;;;;4365290;32;20146;-73
2021/08/06 08:19:42;;;;;;;2.58;1.92;;;24.40;36.10;;;;;;4340571;32;20070;-73
2021/08/06 08:22:08;;;;;;;3.35;1.70;;;24.80;35.80;;;;;;4348089;32;20110;-73
2021/08/06 08:24:37;;;;;;;4.10;1.87;;;24.50;34.40;;;;;;4365499;32;20090;-71
2021/08/06 08:27:04;;;;;;;3.33;1.90;;;24.20;34.00;;;;;;4369496;32;20069;-70
2021/08/06 08:29:30;;;;;;;3.00;1.50;;;23.90;35.50;;;;;;4361911;32;20496;-74
2021/08/06 08:31:56;;;;;;;1.77;1.60;;;24.30;35.30;;;;;;4361658;32;20094;-74
2021/08/06 08:34:24;;;;;;;2.62;1.62;;;24.70;34.40;;;;;;4358790;32;20120;-71
2021/08/06 08:36:50;;;;;;;2.00;1.80;;;25.30;32.70;;;;;;4344971;32;20089;-79
2021/08/06 08:39:17;;;;;;;2.30;1.70;;;25.30;32.80;;;;;;4370035;32;20095;-78
2021/08/06 08:41:44;;;;;;;4.87;2.15;;;24.60;35.90;;;;;;4363142;32;20073;-76
2021/08/06 08:44:10;;;;;;;2.85;1.87;;;24.70;35.70;;;;;;4348789;32;20074;-77
2021/08/06 08:46:37;;;;;;;2.10;1.80;;;24.50;35.80;;;;;;4365941;32;20070;-77
2021/08/06 08:49:04;;;;;;;4.85;1.92;;;24.60;34.60;;;;;;4348225;32;20059;-79
2021/08/06 08:51:30;;;;;;;1.87;1.60;;;25.20;34.10;;;;;;4347484;32;20086;-81
2021/08/06 08:54:00;;;;;;;1.92;1.50;;;25.20;33.80;;;;;;4359283;32;20090;-74
2021/08/06 08:56:29;;;;;;;1.80;1.30;;;25.20;34.60;;;;;;4370614;32;20583;-79
2021/08/06 08:58:56;;;;;;;2.30;1.60;;;24.70;35.10;;;;;;4355837;32;20122;-80
2021/08/06 09:01:24;;;;;;;2.40;1.60;;;24.80;35.50;;;;;;4364052;32;20623;-77
2021/08/06 09:03:50;;;;;;;2.60;1.70;;;24.90;33.80;;;;;;4326317;32;20062;-80
2021/08/06 09:06:17;;;;;;;1.50;1.40;;;25.10;34.60;;;;;;4359413;32;20074;-77
2021/08/06 09:08:43;;;;;;;3.30;2.35;;;24.80;34.90;;;;;;4357364;32;20084;-75
2021/08/06 09:11:32;;;;;;;2.37;2.00;;;25.60;33.90;;;;;;4359059;32;20170;-74
2021/08/06 09:14:25;;;;;;;1.95;1.75;;;25.50;34.10;;;;;;4349280;32;20093;-76
2021/08/06 09:17:10;;;;;;;3.37;2.00;;;25.20;33.80;;;;;;4342924;32;20637;-77
2021/08/06 09:20:07;;;;;;;2.12;1.73;;;25.00;34.50;;;;;;4352539;32;20492;-72
2021/08/06 09:22:34;;;;;;;1.60;1.50;;;25.20;33.90;;;;;;4348238;32;20059;-70
2021/08/06 09:25:16;;;;;;;2.65;1.80;;;25.20;34.50;;;;;;4367117;32;20089;-71
2021/08/06 09:27:47;;;;;;;1.60;1.50;;;25.80;34.10;;;;;;4357483;32;20065;-72
2021/08/06 09:30:23;;;;;;;5.87;2.03;;;25.70;31.50;;;;;;4372588;32;20682;-73
2021/08/06 09:32:53;;;;;;;2.35;1.62;;;25.80;32.20;;;;;;4366697;32;20120;-71
2021/08/06 09:35:22;;;;;;;1.73;1.58;;;25.30;31.70;;;;;;4327893;32;20082;-71
2021/08/06 09:37:48;;;;;;;3.45;1.80;;;25.50;32.50;;;;;;4364998;32;20082;-72
2021/08/06 09:40:21;;;;;;;2.25;1.67;;;25.30;33.20;;;;;;4360842;32;20495;-73
2021/08/06 09:42:52;;;;;;;1.60;1.48;;;25.20;33.60;;;;;;4335766;32;20089;-72
2021/08/06 09:45:21;;;;;;;1.77;1.65;;;25.10;33.70;;;;;;4341450;32;20145;-72
2021/08/06 09:47:55;;;;;;;2.03;1.83;;;25.60;32.80;;;;;;4361952;32;20093;-77
2021/08/06 09:50:36;;;;;;;2.33;1.80;;;26.00;30.80;;;;;;4333522;32;20080;-78
2021/08/06 09:53:03;;;;;;;2.97;1.85;;;25.60;32.40;;;;;;4372322;32;20117;-76
2021/08/06 09:55:37;;;;;;;2.87;1.80;;;25.80;33.30;;;;;;4356208;32;20058;-76
2021/08/06 09:58:09;;;;;;;2.87;1.40;;;26.10;30.60;;;;;;4352662;32;20090;-73
2021/08/06 10:00:45;;;;;;;2.97;1.80;;;26.10;27.90;;;;;;4355386;32;20089;-74
2021/08/06 10:03:35;;;;;;;2.30;1.70;;;25.60;30.20;;;;;;4347877;32;20626;-79
2021/08/06 10:06:16;;;;;;;2.30;1.62;;;25.50;31.70;;;;;;4342640;32;20136;-75
2021/08/06 10:08:42;;;;;;;1.77;1.60;;;25.60;33.20;;;;;;4362253;32;20106;-78
2021/08/06 10:11:09;;;;;;;3.83;2.03;;;26.30;32.80;;;;;;4349247;32;20105;-77
2021/08/06 10:13:37;;;;;;;3.25;1.92;;;26.70;31.90;;;;;;4361205;32;20124;-75
2021/08/06 10:16:03;;;;;;;3.28;1.85;;;26.00;30.60;;;;;;4336931;32;20134;-75
2021/08/06 10:18:30;;;;;;;2.25;1.80;;;25.80;30.80;;;;;;4341340;32;20511;-77
2021/08/06 10:20:56;;;;;;;3.42;1.70;;;26.20;31.90;;;;;;4331403;32;20097;-75
2021/08/06 10:23:23;;;;;;;2.00;1.55;;;26.30;32.20;;;;;;4349159;32;20101;-70
2021/08/06 10:25:49;;;;;;;1.85;1.75;;;26.30;29.90;;;;;;4359423;32;20149;-70
2021/08/06 10:28:15;;;;;;;2.30;1.65;;;26.40;30.00;;;;;;4359247;32;20175;-70
2021/08/06 10:30:42;;;;;;;2.55;1.80;;;26.40;30.00;;;;;;4362522;32;20086;-70
2021/08/06 10:33:28;;;;;;;2.47;1.77;;;26.30;30.70;;;;;;4370167;32;20100;-73
2021/08/06 10:36:04;;;;;;;1.62;1.52;;;27.20;30.90;;;;;;4351364;32;20081;-71
2021/08/06 10:38:41;;;;;;;;;;;27.70;30.50;;;;;;4338750;32;20078;-71
2021/08/06 10:41:20;;;;;;;;;;;26.70;31.80;;;;;;4363995;32;19984;-71
2021/08/06 10:44:00;;;;;;;3.08;1.90;;;26.80;29.40;;;;;;4361892;32;19973;-71
2021/08/06 10:46:26;;;;;;;1.90;1.70;;;26.30;28.60;;;;;;4350053;32;20519;-75
2021/08/06 10:48:54;;;;;;;3.58;1.90;;;26.30;30.00;;;;;;4338672;32;20078;-72
2021/08/06 10:51:23;;;;;;;4.15;1.80;;;26.40;30.70;;;;;;4359370;32;20512;-73
2021/08/06 10:53:59;;;;;;;4.05;1.83;;;26.80;30.50;;;;;;4344516;32;20128;-76
2021/08/06 10:56:30;;;;;;;3.45;1.95;;;27.70;29.50;;;;;;4370253;32;20544;-72
2021/08/06 10:59:23;;;;;;;2.85;1.62;;;26.80;28.10;;;;;;4367863;32;20175;-74
2021/08/06 11:01:50;;;;;;;1.87;1.62;;;26.90;30.60;;;;;;4345569;32;20245;-72
2021/08/06 11:04:16;;;;;;;2.62;1.80;;;26.70;30.90;;;;;;4347533;32;20129;-72
2021/08/06 11:06:47;;;;;;;2.83;2.10;;;26.50;30.80;;;;;;4358153;32;20070;-72
2021/08/06 11:09:26;;;;;;;3.78;2.15;;;26.60;30.50;;;;;;4367275;32;20085;-72
2021/08/06 11:11:54;;;;;;;2.35;1.80;;;27.10;29.90;;;;;;4377272;32;20070;-74
2021/08/06 11:14:32;;;;;;;2.72;1.60;;;26.50;30.00;;;;;;4335864;32;20151;-73
2021/08/06 11:17:15;;;;;;;1.95;1.58;;;26.50;30.50;;;;;;4384383;32;20089;-76
2021/08/06 11:19:52;;;;;;;2.05;1.83;;;26.60;30.00;;;;;;4347656;32;20505;-75
2021/08/06 11:22:31;;;;;;;2.55;2.00;;;26.90;29.60;;;;;;4335463;32;20509;-77
2021/08/06 11:25:24;;;;;;;3.92;1.77;;;27.00;30.00;;;;;;4360547;32;20518;-75
2021/08/06 11:28:00;;;;;;;2.10;1.80;;;27.10;30.10;;;;;;4346112;32;20081;-74
2021/08/06 11:30:34;;;;;;;3.15;1.83;;;26.40;30.50;;;;;;4343329;32;20075;-72
2021/08/06 11:33:09;;;;;;;2.40;1.85;;;27.10;29.90;;;;;;4361295;32;20070;-74
2021/08/06 11:35:40;;;;;;;2.60;1.67;;;27.10;29.60;;;;;;4348839;32;20191;-71
2021/08/06 11:38:11;;;;;;;2.40;1.75;;;27.00;29.30;;;;;;4339750;32;20509;-74
2021/08/06 11:40:48;;;;;;;1.85;1.73;;;27.20;28.50;;;;;;4363509;32;20077;-74
2021/08/06 11:43:20;;;;;;;3.55;1.83;;;27.10;28.10;;;;;;4341558;32;20522;-74
2021/08/06 11:45:49;;;;;;;2.42;1.87;;;26.90;28.70;;;;;;4358745;32;20568;-71
2021/08/06 11:48:16;;;;;;;1.80;1.70;;;26.90;30.00;;;;;;4350473;32;20105;-76
2021/08/06 11:50:52;;;;;;;2.85;1.70;;;27.10;29.10;;;;;;4345925;32;20073;-72
2021/08/06 11:53:25;;;;;;;5.20;1.90;;;27.80;28.50;;;;;;4341053;32;20117;-73
2021/08/06 11:55:54;;;;;;;2.10;1.90;;;28.10;28.20;;;;;;4330903;32;20070;-76
2021/08/06 11:58:34;;;;;;;2.28;2.00;;;27.70;28.60;;;;;;4346971;32;20437;-72
2021/08/06 12:01:01;;;;;;;2.42;1.87;;;27.60;28.60;;;;;;4351584;32;20080;-73
2021/08/06 12:03:27;;;;;;;1.90;1.80;;;27.30;28.90;;;;;;4336548;32;20089;-73
2021/08/06 12:06:00;;;;;;;2.78;1.87;;;26.70;29.60;;;;;;4336196;32;20260;-77
2021/08/06 12:08:33;;;;;;;2.25;1.83;;;27.10;29.60;;;;;;4342523;32;20101;-76
2021/08/06 12:11:06;;;;;;;1.95;1.65;;;28.10;28.40;;;;;;4347629;32;20074;-76
2021/08/06 12:14:01;;;;;;;2.53;1.98;;;27.60;29.20;;;;;;4375625;32;20129;-75
2021/08/06 12:16:36;;;;;;;2.33;1.60;;;27.70;28.50;;;;;;4363278;32;20108;-76
2021/08/06 12:19:03;;;;;;;2.03;1.80;;;27.20;29.10;;;;;;4350049;32;20556;-69
2021/08/06 12:21:34;;;;;;;2.37;1.85;;;27.00;29.60;;;;;;4337541;32;20173;-74
2021/08/06 12:24:02;;;;;;;2.85;2.00;;;27.30;28.80;;;;;;4357042;32;20086;-72
2021/08/06 12:26:34;;;;;;;2.53;1.87;;;26.70;28.30;;;;;;4358247;32;20451;-73
2021/08/06 12:29:19;;;;;;;2.85;1.85;;;26.80;28.50;;;;;;4391430;32;20141;-77
2021/08/06 12:31:59;;;;;;;3.15;1.90;;;27.20;28.50;;;;;;4330650;32;20089;-72
2021/08/06 12:34:29;;;;;;;4.68;2.10;;;27.90;28.30;;;;;;4357520;32;20106;-73
2021/08/06 12:37:03;;;;;;;2.62;2.00;;;27.60;28.00;;;;;;4394631;32;20113;-75
2021/08/06 12:39:32;;;;;;;3.20;2.12;;;28.00;28.70;;;;;;4374795;32;20174;-73
2021/08/06 12:42:22;;;;;;;2.65;2.10;;;27.40;28.40;;;;;;4348927;32;20453;-75
2021/08/06 12:45:15;;;;;;;2.22;1.62;;;27.20;28.90;;;;;;4356003;32;20512;-74
2021/08/06 12:47:53;;;;;;;4.78;2.10;;;27.30;28.60;;;;;;4360314;32;20073;-74
2021/08/06 12:50:26;;;;;;;1.98;1.75;;;26.80;28.80;;;;;;4364264;32;20080;-76
2021/08/06 12:53:05;;;;;;;2.97;1.67;;;27.30;28.90;;;;;;4375897;32;20557;-71
2021/08/06 12:55:32;;;;;;;2.45;1.83;;;27.50;29.00;;;;;;4350891;32;20548;-70
2021/08/06 12:57:59;;;;;;;3.35;1.67;;;27.30;28.60;;;;;;4360685;32;20495;-78